Time;durP1;ratioP1;P1;durP2;ratioP2;P2;SDS_P1;SDS_P2;PMS_P1;PMS_P2;Temp;Humidity;BMP_temperature;BMP_pressure;BME280_temperature;BME280_humidity;BME280_pressure;Samples;Min_cycle;Max_cycle;Signal;HPM_P1;HPM_P2
2023/12/04 00:00:36;;;;;;;35.17;22.38;;;0.70;99.90;;;;;;5037830;28;20235;-85
2023/12/04 00:03:04;;;;;;;33.63;19.38;;;0.70;99.90;;;;;;5033420;28;20573;-84
2023/12/04 00:05:31;;;;;;;42.28;21.65;;;0.70;99.90;;;;;;5036899;28;20204;-85
2023/12/04 00:07:58;;;;;;;34.03;19.48;;;0.70;99.90;;;;;;5039778;28;20902;-85
2023/12/04 00:10:25;;;;;;;30.92;19.27;;;0.90;99.90;;;;;;5042927;28;20673;-83
2023/12/04 00:12:52;;;;;;;32.63;19.95;;;0.90;99.90;;;;;;5035783;28;20193;-85
2023/12/04 00:15:21;;;;;;;31.85;20.17;;;0.90;99.90;;;;;;5042010;28;20238;-84
2023/12/04 00:17:48;;;;;;;29.25;17.60;;;0.80;99.90;;;;;;5046813;28;20233;-84
2023/12/04 00:20:16;;;;;;;33.35;20.40;;;0.70;99.90;;;;;;5060371;28;20207;-85
2023/12/04 00:22:43;;;;;;;36.70;21.33;;;1.00;99.90;;;;;;5053779;28;20201;-84
2023/12/04 00:25:10;;;;;;;29.35;18.65;;;0.70;99.90;;;;;;5051563;28;20205;-83
2023/12/04 00:27:37;;;;;;;32.10;20.48;;;0.70;99.90;;;;;;5049551;28;20792;-84
2023/12/04 00:30:05;;;;;;;38.05;23.70;;;0.60;99.90;;;;;;5055283;28;20234;-83
2023/12/04 00:32:33;;;;;;;33.25;20.60;;;0.60;99.90;;;;;;5058457;28;20209;-84
2023/12/04 00:35:00;;;;;;;36.30;21.95;;;0.70;99.90;;;;;;5047842;28;20219;-84
2023/12/04 00:37:29;;;;;;;33.15;19.90;;;0.80;99.90;;;;;;5044010;28;20278;-85
2023/12/04 00:39:55;;;;;;;33.83;20.15;;;0.70;99.90;;;;;;5047322;28;20200;-85
2023/12/04 00:42:22;;;;;;;32.47;19.70;;;0.60;99.90;;;;;;5046822;28;20205;-84
2023/12/04 00:44:49;;;;;;;41.53;21.63;;;0.70;99.90;;;;;;5053867;28;20208;-83
2023/12/04 00:47:16;;;;;;;30.13;18.77;;;0.50;99.90;;;;;;5048560;28;20225;-83
2023/12/04 00:49:43;;;;;;;32.75;21.33;;;0.60;99.90;;;;;;5053364;28;20197;-85
2023/12/04 00:52:10;;;;;;;31.98;19.90;;;0.60;99.90;;;;;;5048083;28;20223;-83
2023/12/04 00:54:41;;;;;;;30.67;20.08;;;0.60;99.90;;;;;;5042888;28;20184;-85
2023/12/04 00:57:09;;;;;;;33.13;20.90;;;0.60;99.90;;;;;;5041030;28;20297;-85
2023/12/04 00:59:35;;;;;;;35.65;21.08;;;0.60;99.90;;;;;;5038211;28;20228;-83
2023/12/04 01:02:02;;;;;;;32.47;20.48;;;0.60;99.90;;;;;;5038340;28;20215;-83
2023/12/04 01:04:29;;;;;;;32.33;19.45;;;0.60;99.90;;;;;;5060088;28;20192;-83
2023/12/04 01:06:56;;;;;;;30.08;20.05;;;0.60;99.90;;;;;;5055524;28;20185;-83
2023/12/04 01:09:24;;;;;;;34.03;19.23;;;0.60;99.90;;;;;;5058246;28;20181;-83
2023/12/04 01:11:53;;;;;;;34.85;19.60;;;0.70;99.90;;;;;;5050383;28;20272;-82
2023/12/04 01:14:20;;;;;;;31.00;19.65;;;0.70;99.90;;;;;;5060709;28;20189;-82
2023/12/04 01:16:47;;;;;;;27.95;18.75;;;0.70;99.90;;;;;;5052896;28;20215;-83
2023/12/04 01:19:14;;;;;;;28.73;18.92;;;0.80;99.90;;;;;;5061781;28;20517;-83
2023/12/04 01:21:41;;;;;;;24.25;16.88;;;0.80;99.90;;;;;;5067464;28;20208;-82
2023/12/04 01:24:08;;;;;;;29.52;17.90;;;0.90;99.90;;;;;;5058132;28;20184;-81
2023/12/04 01:26:35;;;;;;;31.85;18.42;;;0.80;99.90;;;;;;5059556;28;20192;-83
2023/12/04 01:29:03;;;;;;;29.95;18.25;;;0.80;99.90;;;;;;5056398;28;20238;-83
2023/12/04 01:31:30;;;;;;;29.40;17.85;;;0.80;99.90;;;;;;5050990;28;20208;-84
2023/12/04 01:33:57;;;;;;;36.35;21.48;;;0.80;99.90;;;;;;5048004;28;20196;-83
2023/12/04 01:36:24;;;;;;;33.03;20.25;;;0.90;99.90;;;;;;5051324;28;20279;-83
2023/12/04 01:38:51;;;;;;;29.33;17.70;;;0.90;99.90;;;;;;5061746;28;20243;-83
2023/12/04 01:41:18;;;;;;;32.25;20.23;;;0.90;99.90;;;;;;5063146;28;20187;-83
2023/12/04 01:46:30;;;;;;;30.95;21.00;;;0.80;99.90;;;;;;5031316;28;20282;-84
2023/12/04 01:48:57;;;;;;;28.30;19.55;;;0.90;99.90;;;;;;5044778;28;20216;-84
2023/12/04 01:51:25;;;;;;;33.58;18.70;;;0.80;99.90;;;;;;5049614;28;20212;-83
2023/12/04 01:53:52;;;;;;;32.10;18.42;;;0.90;99.90;;;;;;5041374;28;20450;-84
2023/12/04 01:56:20;;;;;;;25.55;17.08;;;1.10;99.90;;;;;;5048492;28;20225;-83
2023/12/04 01:58:47;;;;;;;29.67;19.45;;;1.00;99.90;;;;;;5044254;28;20240;-84
2023/12/04 02:01:15;;;;;;;30.60;16.85;;;0.90;99.90;;;;;;5036269;28;20205;-84
2023/12/04 02:03:44;;;;;;;27.27;18.02;;;0.80;99.90;;;;;;5056307;28;20210;-83
2023/12/04 02:06:11;;;;;;;29.33;17.85;;;0.80;99.90;;;;;;5042365;28;20355;-84
2023/12/04 02:08:38;;;;;;;30.63;18.90;;;0.80;99.90;;;;;;5057619;28;20204;-83
2023/12/04 02:11:06;;;;;;;33.08;21.88;;;0.80;99.90;;;;;;5059200;28;20192;-83
2023/12/04 02:13:33;;;;;;;29.17;18.33;;;0.80;99.90;;;;;;5048366;28;20530;-83
2023/12/04 02:16:05;;;;;;;30.77;19.48;;;0.80;99.90;;;;;;5058068;28;20231;-83
2023/12/04 02:18:33;;;;;;;32.38;18.70;;;0.80;99.90;;;;;;5045391;28;20240;-84
2023/12/04 02:21:03;;;;;;;35.88;18.25;;;0.80;99.90;;;;;;5057893;28;20204;-84
2023/12/04 02:23:30;;;;;;;28.00;18.63;;;0.90;99.90;;;;;;5051661;28;20209;-83
2023/12/04 02:26:02;;;;;;;29.77;18.38;;;1.00;99.90;;;;;;5057077;28;20189;-83
2023/12/04 02:28:33;;;;;;;30.65;16.45;;;0.90;99.90;;;;;;5038985;28;20229;-83
2023/12/04 02:31:02;;;;;;;28.08;17.55;;;0.90;99.90;;;;;;5030943;28;20207;-84
2023/12/04 02:33:29;;;;;;;25.23;16.52;;;1.10;99.90;;;;;;5032751;28;20539;-84
2023/12/04 02:35:58;;;;;;;28.63;17.80;;;1.00;99.90;;;;;;5040039;28;20216;-84
2023/12/04 02:38:25;;;;;;;26.50;18.55;;;1.00;99.90;;;;;;5032356;28;20256;-85
2023/12/04 02:40:52;;;;;;;30.58;18.40;;;1.10;99.90;;;;;;5041503;28;20268;-85
2023/12/04 02:43:21;;;;;;;27.17;16.63;;;1.00;99.90;;;;;;5043009;28;20288;-85
2023/12/04 02:45:48;;;;;;;26.67;16.75;;;1.00;99.90;;;;;;5033633;28;20184;-84
2023/12/04 02:48:15;;;;;;;37.42;19.85;;;1.00;99.90;;;;;;5034249;28;20225;-84
2023/12/04 02:50:42;;;;;;;25.30;17.67;;;1.00;99.90;;;;;;5041370;28;20201;-83
2023/12/04 02:53:08;;;;;;;29.35;17.25;;;1.00;99.90;;;;;;5049409;28;20203;-84
2023/12/04 02:55:35;;;;;;;31.80;18.83;;;1.10;99.90;;;;;;5042673;28;20201;-84
2023/12/04 02:58:02;;;;;;;31.52;19.75;;;1.00;99.90;;;;;;5038204;28;20224;-84
2023/12/04 03:00:30;;;;;;;26.48;17.05;;;0.90;99.90;;;;;;5037400;28;20221;-85
2023/12/04 03:02:57;;;;;;;33.92;18.83;;;0.90;99.90;;;;;;5046942;28;20220;-83
2023/12/04 03:05:24;;;;;;;24.92;16.33;;;0.90;99.90;;;;;;5040886;28;20639;-84
2023/12/04 03:07:51;;;;;;;24.05;17.23;;;0.90;99.90;;;;;;5044281;28;20225;-83
2023/12/04 03:10:18;;;;;;;25.60;15.05;;;0.90;99.90;;;;;;5047455;28;20662;-83
2023/12/04 03:12:45;;;;;;;28.58;18.10;;;0.90;99.90;;;;;;5033309;28;20270;-84
2023/12/04 03:15:12;;;;;;;29.77;18.55;;;0.90;99.90;;;;;;5040267;28;20205;-84
2023/12/04 03:17:41;;;;;;;31.60;16.80;;;0.90;99.90;;;;;;5027667;28;20232;-83
2023/12/04 03:20:09;;;;;;;29.33;18.95;;;0.90;99.90;;;;;;5035465;28;20298;-83
2023/12/04 03:22:39;;;;;;;32.67;19.55;;;1.00;99.90;;;;;;5044911;28;20227;-82
2023/12/04 03:25:08;;;;;;;30.27;17.00;;;1.20;99.90;;;;;;5048641;28;20550;-83
2023/12/04 03:27:36;;;;;;;27.27;16.67;;;1.00;99.90;;;;;;5041121;28;20227;-85
2023/12/04 03:30:03;;;;;;;24.30;14.77;;;1.00;99.90;;;;;;5033312;28;20200;-85
2023/12/04 03:32:30;;;;;;;30.27;16.25;;;1.00;99.90;;;;;;5040815;28;20196;-85
2023/12/04 03:34:59;;;;;;;24.80;15.82;;;1.20;99.90;;;;;;5040356;28;20248;-85
2023/12/04 03:37:26;;;;;;;28.10;16.00;;;1.20;99.90;;;;;;5033549;28;20220;-84
2023/12/04 03:39:53;;;;;;;25.17;15.45;;;1.30;99.90;;;;;;5036435;28;20254;-84
2023/12/04 03:42:20;;;;;;;33.72;17.15;;;1.20;99.90;;;;;;5037024;28;20211;-83
2023/12/04 03:44:47;;;;;;;33.47;18.38;;;1.00;99.90;;;;;;5042356;28;20219;-82
2023/12/04 03:47:13;;;;;;;30.65;15.68;;;1.00;99.90;;;;;;5038841;28;20228;-84
2023/12/04 03:49:40;;;;;;;27.90;17.02;;;1.10;99.90;;;;;;5035033;28;20212;-85
2023/12/04 03:52:09;;;;;;;33.25;18.30;;;1.10;99.90;;;;;;5044503;28;20201;-85
2023/12/04 03:54:36;;;;;;;24.73;16.75;;;1.10;99.90;;;;;;5048684;28;20220;-84
2023/12/04 03:57:03;;;;;;;26.83;16.30;;;1.20;99.90;;;;;;5033480;28;20235;-84
2023/12/04 03:59:30;;;;;;;25.20;15.73;;;1.10;99.90;;;;;;5040445;28;20299;-84
2023/12/04 04:01:56;;;;;;;26.85;15.10;;;1.10;99.90;;;;;;5043011;28;20209;-84
2023/12/04 04:04:23;;;;;;;30.33;17.35;;;1.10;99.90;;;;;;5038491;28;20204;-83
2023/12/04 04:06:51;;;;;;;25.05;15.82;;;1.00;99.90;;;;;;5044451;28;20303;-85
2023/12/04 04:09:20;;;;;;;32.28;18.33;;;1.00;99.90;;;;;;5039837;28;20574;-84
2023/12/04 04:11:47;;;;;;;28.60;16.90;;;0.90;99.90;;;;;;5056276;28;20271;-84
2023/12/04 04:14:14;;;;;;;31.85;18.85;;;1.00;99.90;;;;;;5040914;28;20201;-84
2023/12/04 04:16:41;;;;;;;28.08;16.13;;;1.10;99.90;;;;;;5036771;28;20205;-85
2023/12/04 04:19:08;;;;;;;27.73;16.93;;;1.20;99.90;;;;;;5042261;28;20227;-85
2023/12/04 04:21:35;;;;;;;27.98;16.35;;;1.20;99.90;;;;;;5049110;28;20474;-86
2023/12/04 04:24:02;;;;;;;29.13;17.48;;;1.20;99.90;;;;;;5035409;28;20205;-84
2023/12/04 04:26:30;;;;;;;29.33;19.75;;;1.20;99.90;;;;;;5040936;28;20201;-84
2023/12/04 04:28:57;;;;;;;30.98;16.48;;;1.10;99.90;;;;;;5036538;28;20455;-83
2023/12/04 04:31:24;;;;;;;28.52;17.02;;;1.20;99.90;;;;;;5049587;28;20206;-84
2023/12/04 04:33:51;;;;;;;26.60;16.55;;;1.30;99.90;;;;;;5054910;28;20214;-82
2023/12/04 04:36:18;;;;;;;26.00;15.90;;;1.20;99.90;;;;;;5051277;28;20202;-84
2023/12/04 04:38:45;;;;;;;32.47;18.92;;;1.20;99.90;;;;;;5033081;28;20291;-84
2023/12/04 04:41:15;;;;;;;20.35;14.18;;;1.40;99.90;;;;;;5052222;28;20271;-83
2023/12/04 04:43:43;;;;;;;28.33;15.02;;;1.20;99.90;;;;;;5048119;28;20248;-83
2023/12/04 04:46:10;;;;;;;31.98;17.33;;;1.10;99.90;;;;;;5052536;28;20209;-84
2023/12/04 04:48:37;;;;;;;24.92;15.48;;;1.20;99.90;;;;;;5048117;28;20220;-84
2023/12/04 04:51:05;;;;;;;23.45;15.45;;;1.20;99.90;;;;;;5045458;28;20243;-83
2023/12/04 04:53:32;;;;;;;27.25;14.55;;;1.20;99.90;;;;;;5036924;28;20206;-84
2023/12/04 04:55:59;;;;;;;23.90;15.32;;;1.10;99.90;;;;;;5048421;28;20192;-82
2023/12/04 04:58:25;;;;;;;30.02;17.70;;;1.10;99.90;;;;;;5052394;28;20212;-84
2023/12/04 05:00:54;;;;;;;26.10;15.30;;;1.00;99.90;;;;;;5047186;28;20260;-83
2023/12/04 05:03:21;;;;;;;26.58;15.90;;;1.00;99.90;;;;;;5040521;28;20197;-85
2023/12/04 05:05:48;;;;;;;23.75;15.45;;;1.00;99.90;;;;;;5044557;28;20236;-85
2023/12/04 05:08:14;;;;;;;26.92;15.82;;;1.00;99.90;;;;;;5047045;28;20255;-82
2023/12/04 05:10:42;;;;;;;25.80;16.80;;;1.00;99.90;;;;;;5043725;28;20197;-84
2023/12/04 05:13:09;;;;;;;27.65;16.30;;;1.10;99.90;;;;;;5052879;28;20264;-85
2023/12/04 05:15:36;;;;;;;28.95;17.70;;;1.10;99.90;;;;;;5048014;28;20656;-85
2023/12/04 05:18:04;;;;;;;26.35;16.42;;;1.10;99.90;;;;;;5051610;28;20220;-84
2023/12/04 05:20:31;;;;;;;29.88;16.85;;;1.10;99.90;;;;;;5046029;28;20229;-85
2023/12/04 05:22:58;;;;;;;25.67;15.52;;;1.00;99.90;;;;;;5056205;28;20206;-85
2023/12/04 05:25:25;;;;;;;22.65;15.32;;;1.00;99.90;;;;;;5056234;28;20209;-84
2023/12/04 05:27:52;;;;;;;29.95;16.70;;;1.00;99.90;;;;;;5061352;28;20226;-84
2023/12/04 05:30:20;;;;;;;23.90;14.68;;;1.00;99.90;;;;;;5050738;28;20200;-84
2023/12/04 05:32:47;;;;;;;26.10;16.15;;;0.90;99.90;;;;;;5057349;28;20214;-83
2023/12/04 05:35:17;;;;;;;23.52;13.40;;;0.90;99.90;;;;;;5058725;28;20212;-85
2023/12/04 05:37:45;;;;;;;25.85;15.77;;;1.10;99.90;;;;;;5036165;28;20226;-84
2023/12/04 05:40:12;;;;;;;25.35;15.63;;;1.00;99.90;;;;;;5052072;28;20250;-83
2023/12/04 05:42:39;;;;;;;24.40;15.20;;;1.00;99.90;;;;;;5048325;28;20208;-83
2023/12/04 05:45:07;;;;;;;42.15;17.25;;;1.10;99.90;;;;;;5049870;28;20196;-81
2023/12/04 05:50:46;;;;;;;30.33;18.38;;;0.90;99.90;;;;;;5036460;28;20223;-82
2023/12/04 05:53:13;;;;;;;28.77;17.15;;;1.00;99.90;;;;;;5043962;28;20208;-82
2023/12/04 05:58:33;;;;;;;29.13;18.30;;;1.10;99.90;;;;;;5048794;28;20220;-83
2023/12/04 06:01:21;;;;;;;26.77;16.15;;;1.10;99.90;;;;;;5046920;28;20220;-86
2023/12/04 06:04:38;;;;;;;27.55;17.23;;;1.10;99.90;;;;;;5059447;28;20227;-84
2023/12/04 06:07:27;;;;;;;31.90;16.50;;;1.10;99.90;;;;;;5059635;28;20220;-85
2023/12/04 06:10:17;;;;;;;30.05;17.27;;;1.20;99.90;;;;;;5052184;28;20452;-85
2023/12/04 06:58:44;;;;;;;25.65;15.40;;;1.20;99.90;;;;;;4718541;30;21331;-85
2023/12/04 07:38:03;;;;;;;31.83;16.85;;;1.30;99.90;;;;;;4898337;23;20270;-71
2023/12/04 07:40:29;;;;;;;24.58;14.90;;;1.30;99.90;;;;;;5020287;28;20312;-66
2023/12/04 07:42:56;;;;;;;25.35;16.08;;;1.40;99.90;;;;;;5031768;28;20201;-69
2023/12/04 07:45:23;;;;;;;26.30;16.20;;;1.40;99.90;;;;;;5033102;28;20282;-66
2023/12/04 07:47:51;;;;;;;21.50;13.02;;;1.40;99.90;;;;;;5028176;28;20197;-67
2023/12/04 07:50:18;;;;;;;22.83;14.55;;;1.50;99.90;;;;;;5023087;28;20280;-65
2023/12/04 07:52:45;;;;;;;26.50;14.02;;;1.60;99.90;;;;;;5033547;28;20634;-68
2023/12/04 07:55:14;;;;;;;24.40;15.23;;;1.60;99.90;;;;;;5033346;28;20219;-64
2023/12/04 07:57:41;;;;;;;20.67;13.63;;;1.60;99.90;;;;;;5040364;28;20202;-67
2023/12/04 08:00:08;;;;;;;25.08;13.48;;;1.50;99.90;;;;;;5032022;28;20224;-66
2023/12/04 08:02:35;;;;;;;21.65;14.15;;;1.60;99.90;;;;;;5032194;28;20205;-69
2023/12/04 08:05:02;;;;;;;41.25;14.60;;;1.60;99.90;;;;;;5030885;28;20760;-69
2023/12/04 08:07:29;;;;;;;21.05;13.70;;;1.60;99.90;;;;;;5032196;28;20227;-67
2023/12/04 08:09:57;;;;;;;21.13;12.90;;;1.60;99.90;;;;;;5032290;28;20204;-66
2023/12/04 08:12:25;;;;;;;20.52;13.52;;;1.60;99.90;;;;;;5025518;28;20201;-71
2023/12/04 08:14:53;;;;;;;18.85;12.80;;;1.70;99.90;;;;;;5034267;28;20224;-66
2023/12/04 08:17:20;;;;;;;22.85;15.02;;;1.70;99.90;;;;;;5024839;28;20201;-69
2023/12/04 08:19:47;;;;;;;23.60;13.52;;;1.60;99.90;;;;;;5027622;28;20205;-67
2023/12/04 08:22:14;;;;;;;20.42;11.65;;;1.70;99.90;;;;;;5022407;28;20204;-67
2023/12/04 08:24:41;;;;;;;20.88;13.13;;;1.70;99.90;;;;;;5031587;28;20764;-66
2023/12/04 08:27:08;;;;;;;17.40;12.07;;;1.80;99.90;;;;;;5031753;28;20685;-66
2023/12/04 08:29:37;;;;;;;19.73;13.15;;;1.80;99.90;;;;;;5025519;28;20243;-68
2023/12/04 08:32:06;;;;;;;21.73;13.70;;;1.80;99.90;;;;;;5027272;28;20208;-67
2023/12/04 08:34:33;;;;;;;20.38;12.82;;;1.80;99.90;;;;;;5029406;28;22011;-68
2023/12/04 08:37:00;;;;;;;21.40;14.48;;;1.80;99.90;;;;;;5027373;28;20201;-68
2023/12/04 08:39:27;;;;;;;19.10;11.75;;;1.80;99.90;;;;;;5026704;28;20204;-66
2023/12/04 08:41:54;;;;;;;20.75;12.85;;;1.90;99.90;;;;;;5033127;28;20231;-68
2023/12/04 08:44:21;;;;;;;15.18;12.20;;;2.00;99.90;;;;;;5025543;28;20271;-68
2023/12/04 08:46:51;;;;;;;17.25;11.85;;;2.00;99.90;;;;;;5021380;28;20279;-66
2023/12/04 08:49:18;;;;;;;18.20;11.45;;;1.90;99.90;;;;;;5028822;28;20631;-65
2023/12/04 08:51:45;;;;;;;21.27;14.02;;;2.00;99.90;;;;;;5026639;28;20213;-69
2023/12/04 08:54:12;;;;;;;22.20;14.45;;;2.00;99.90;;;;;;5026774;28;20232;-66
2023/12/04 08:56:39;;;;;;;14.27;10.50;;;1.90;99.90;;;;;;5040978;28;20209;-66
2023/12/04 08:59:07;;;;;;;20.67;13.60;;;1.90;99.90;;;;;;5024952;28;20212;-69
2023/12/04 09:01:34;;;;;;;22.02;12.43;;;1.90;99.90;;;;;;5031376;28;20580;-67
2023/12/04 09:04:02;;;;;;;17.50;12.55;;;2.00;99.90;;;;;;5026372;28;20223;-67
2023/12/04 09:06:29;;;;;;;29.35;12.30;;;2.10;99.90;;;;;;5027050;28;20236;-66
2023/12/04 09:08:56;;;;;;;17.95;12.00;;;2.10;99.90;;;;;;5025245;28;20241;-65
2023/12/04 09:11:23;;;;;;;24.95;13.50;;;2.10;99.90;;;;;;5028267;28;20197;-65
2023/12/04 09:13:50;;;;;;;18.85;12.10;;;2.20;99.90;;;;;;5030094;28;20259;-69
2023/12/04 09:16:17;;;;;;;23.70;15.45;;;2.20;99.90;;;;;;5034571;28;20591;-66
2023/12/04 09:18:44;;;;;;;20.42;13.80;;;2.20;99.90;;;;;;5031863;28;20263;-64
2023/12/04 09:21:13;;;;;;;19.55;12.68;;;2.20;99.90;;;;;;5023607;28;20216;-68
2023/12/04 09:23:40;;;;;;;21.70;11.45;;;2.30;99.90;;;;;;5026273;28;20254;-68
2023/12/04 09:26:07;;;;;;;23.90;13.82;;;2.30;99.90;;;;;;5033226;28;20673;-68
2023/12/04 09:28:36;;;;;;;17.73;12.43;;;2.20;99.90;;;;;;5033803;28;20522;-70
2023/12/04 09:31:05;;;;;;;19.55;11.52;;;2.20;99.90;;;;;;5032209;28;20197;-68
2023/12/04 09:33:31;;;;;;;19.00;12.93;;;2.30;99.90;;;;;;5031164;28;20309;-67
2023/12/04 09:35:58;;;;;;;19.40;13.02;;;2.40;99.90;;;;;;5028895;28;20259;-68
2023/12/04 09:38:27;;;;;;;19.70;12.38;;;2.40;99.90;;;;;;5030658;28;20211;-69
2023/12/04 09:40:54;;;;;;;19.98;11.85;;;2.50;99.90;;;;;;5021958;28;20260;-65
2023/12/04 09:43:21;;;;;;;17.15;12.40;;;2.50;99.90;;;;;;5033568;28;20200;-67
2023/12/04 09:45:48;;;;;;;16.15;11.02;;;2.50;99.90;;;;;;5030792;28;20290;-68
2023/12/04 09:48:16;;;;;;;18.58;12.98;;;2.50;99.90;;;;;;5035228;28;20212;-68
2023/12/04 09:50:44;;;;;;;18.88;11.90;;;2.50;99.90;;;;;;5034010;28;20594;-67
2023/12/04 09:53:13;;;;;;;16.73;11.55;;;2.40;99.90;;;;;;5024054;28;20209;-68
2023/12/04 09:55:42;;;;;;;20.30;13.38;;;2.50;99.90;;;;;;5026257;28;20246;-69
2023/12/04 09:58:11;;;;;;;15.55;12.30;;;2.50;99.90;;;;;;5033774;28;20282;-67
2023/12/04 10:00:39;;;;;;;18.67;12.63;;;2.50;99.90;;;;;;5040089;28;20234;-66
2023/12/04 10:03:06;;;;;;;16.20;11.68;;;2.50;99.90;;;;;;5028007;28;20205;-67
2023/12/04 10:05:34;;;;;;;17.95;12.88;;;2.60;99.90;;;;;;5027979;28;20240;-64
2023/12/04 10:08:00;;;;;;;17.63;12.95;;;2.60;99.90;;;;;;5026419;28;20240;-65
2023/12/04 10:10:27;;;;;;;15.93;11.18;;;2.70;99.90;;;;;;5026267;28;20216;-65
2023/12/04 10:12:56;;;;;;;19.48;12.80;;;2.70;99.90;;;;;;5026536;28;20204;-66
2023/12/04 10:15:23;;;;;;;17.38;11.75;;;2.70;99.90;;;;;;5024718;28;20228;-67
2023/12/04 10:17:51;;;;;;;15.68;11.70;;;2.80;99.90;;;;;;5026232;28;20235;-67
2023/12/04 10:20:18;;;;;;;19.50;12.40;;;2.80;99.90;;;;;;5024891;28;20220;-70
2023/12/04 10:22:55;;;;;;;19.27;12.20;;;2.70;99.90;;;;;;5028908;28;20236;-69
2023/12/04 10:25:24;;;;;;;16.48;13.02;;;2.70;99.90;;;;;;5034514;28;20256;-69
2023/12/04 10:27:51;;;;;;;19.45;11.88;;;2.80;99.90;;;;;;5029408;28;20204;-68
2023/12/04 10:30:27;;;;;;;17.15;11.75;;;2.80;99.90;;;;;;5031744;28;20266;-69
2023/12/04 10:33:00;;;;;;;18.25;10.88;;;2.80;99.90;;;;;;5029189;28;20212;-67
2023/12/04 10:35:29;;;;;;;14.40;10.88;;;2.80;99.90;;;;;;5030908;28;20264;-69
2023/12/04 10:37:57;;;;;;;15.95;10.18;;;2.90;99.90;;;;;;5033624;28;20560;-66
2023/12/04 10:40:25;;;;;;;17.13;11.13;;;2.80;99.90;;;;;;5029958;28;20211;-69
2023/12/04 10:42:51;;;;;;;15.30;10.80;;;2.70;99.90;;;;;;5032804;28;20204;-68
2023/12/04 10:45:22;;;;;;;16.00;10.18;;;2.70;99.90;;;;;;5033102;28;20223;-66
2023/12/04 10:47:52;;;;;;;15.25;10.23;;;2.80;99.90;;;;;;5035560;28;20232;-67
2023/12/04 10:50:19;;;;;;;16.00;11.15;;;2.90;99.90;;;;;;5030463;28;20208;-67
2023/12/04 10:52:48;;;;;;;15.98;10.15;;;3.00;99.90;;;;;;5027340;28;20620;-65
2023/12/04 10:55:15;;;;;;;14.35;11.05;;;3.00;99.90;;;;;;5032652;28;20252;-67
2023/12/04 10:57:46;;;;;;;19.85;11.10;;;3.00;99.90;;;;;;5033958;28;20740;-68
2023/12/04 11:00:16;;;;;;;20.23;13.95;;;3.10;99.90;;;;;;5023041;28;20272;-66
2023/12/04 11:02:47;;;;;;;14.50;8.95;;;3.10;99.90;;;;;;5018646;28;20219;-69
2023/12/04 11:05:19;;;;;;;15.00;10.00;;;3.20;99.90;;;;;;5024618;28;20307;-70
2023/12/04 11:07:52;;;;;;;16.52;10.23;;;3.10;99.90;;;;;;5025122;28;20307;-66
2023/12/04 11:10:23;;;;;;;17.13;11.95;;;3.20;99.90;;;;;;5025879;28;20293;-68
2023/12/04 11:13:03;;;;;;;17.02;12.23;;;3.20;99.90;;;;;;5029481;28;20202;-63
2023/12/04 11:15:32;;;;;;;16.60;10.27;;;3.30;99.90;;;;;;5033148;28;20282;-72
2023/12/04 11:18:00;;;;;;;15.30;11.15;;;3.40;99.90;;;;;;5027003;28;20232;-65
2023/12/04 11:20:37;;;;;;;16.88;10.02;;;3.40;99.90;;;;;;5030404;28;20287;-66
2023/12/04 11:23:06;;;;;;;17.33;10.70;;;3.40;99.90;;;;;;5027649;28;20210;-64
2023/12/04 11:25:34;;;;;;;14.43;9.60;;;3.50;99.90;;;;;;5027673;28;20599;-67
2023/12/04 11:28:03;;;;;;;19.77;13.10;;;3.40;99.90;;;;;;5028621;28;20539;-64
2023/12/04 11:30:31;;;;;;;15.10;10.55;;;3.40;99.90;;;;;;5032039;28;20243;-68
2023/12/04 11:33:01;;;;;;;14.52;10.45;;;3.50;99.90;;;;;;5033216;28;20267;-65
2023/12/04 11:35:30;;;;;;;16.38;11.40;;;3.50;99.90;;;;;;5113717;23;20240;-65
2023/12/04 11:37:57;;;;;;;13.88;9.52;;;3.50;99.90;;;;;;5031118;28;20267;-65
2023/12/04 11:40:25;;;;;;;17.20;12.00;;;3.50;99.90;;;;;;5030776;28;20290;-67
2023/12/04 11:42:53;;;;;;;16.05;11.32;;;3.40;99.90;;;;;;5032336;28;20621;-66
2023/12/04 11:45:22;;;;;;;15.35;11.35;;;3.40;99.90;;;;;;5030593;28;20278;-65
2023/12/04 11:47:55;;;;;;;16.23;11.45;;;3.50;99.90;;;;;;5032434;28;20201;-66
2023/12/04 11:50:22;;;;;;;16.65;12.55;;;3.50;99.90;;;;;;5028686;28;20237;-66
2023/12/04 11:52:51;;;;;;;17.08;11.95;;;3.60;99.90;;;;;;5031941;28;20254;-67
2023/12/04 11:55:19;;;;;;;17.80;12.13;;;3.50;99.90;;;;;;5032285;28;20231;-68
2023/12/04 11:57:46;;;;;;;17.58;11.65;;;3.50;99.90;;;;;;5025143;28;20216;-65
2023/12/04 12:00:21;;;;;;;14.40;10.18;;;3.50;99.90;;;;;;5031901;28;20654;-68
2023/12/04 12:03:06;;;;;;;14.77;11.63;;;3.40;99.90;;;;;;5032152;28;20270;-70
2023/12/04 12:05:34;;;;;;;17.83;11.57;;;3.50;99.90;;;;;;5035687;28;20303;-68
2023/12/04 12:08:04;;;;;;;14.90;11.10;;;3.60;99.90;;;;;;5032697;28;20207;-70
2023/12/04 12:10:31;;;;;;;17.80;11.80;;;3.70;99.90;;;;;;5025694;28;20656;-69
2023/12/04 12:12:59;;;;;;;16.08;10.18;;;3.70;99.90;;;;;;5028457;28;20443;-65
2023/12/04 12:15:26;;;;;;;14.35;9.45;;;3.70;99.90;;;;;;5028258;28;20227;-69
2023/12/04 12:17:54;;;;;;;16.73;10.75;;;3.80;99.90;;;;;;5032947;28;20693;-70
2023/12/04 12:20:21;;;;;;;13.48;10.15;;;3.60;99.90;;;;;;5031779;28;20211;-70
2023/12/04 12:22:49;;;;;;;17.10;11.90;;;3.60;99.90;;;;;;5031188;28;20224;-65
2023/12/04 12:25:19;;;;;;;14.20;10.43;;;3.60;99.90;;;;;;5031684;28;20220;-69
2023/12/04 12:27:46;;;;;;;15.98;11.18;;;3.60;99.90;;;;;;5028623;28;20643;-68
2023/12/04 12:30:15;;;;;;;16.30;11.05;;;3.70;99.90;;;;;;5019868;28;20209;-67
2023/12/04 12:32:42;;;;;;;17.70;10.65;;;3.70;99.90;;;;;;5031995;28;20204;-67
2023/12/04 12:35:09;;;;;;;15.82;10.95;;;3.70;99.90;;;;;;5023384;28;20238;-69
2023/12/04 12:37:37;;;;;;;23.50;11.75;;;3.60;99.90;;;;;;5027154;28;20205;-67
2023/12/04 12:40:09;;;;;;;15.77;10.43;;;3.50;99.90;;;;;;5023551;28;20236;-69
2023/12/04 12:42:41;;;;;;;18.88;11.52;;;3.60;99.90;;;;;;5026514;28;20248;-67
2023/12/04 12:45:11;;;;;;;19.70;12.20;;;3.60;99.90;;;;;;5025289;28;20279;-68
2023/12/04 12:47:39;;;;;;;15.38;10.50;;;3.60;99.90;;;;;;5026949;28;20541;-68
2023/12/04 12:50:13;;;;;;;16.42;11.90;;;3.50;99.90;;;;;;5034391;28;20224;-66
2023/12/04 12:52:40;;;;;;;16.75;9.75;;;3.60;99.90;;;;;;5037252;28;20200;-70
2023/12/04 12:55:08;;;;;;;15.25;10.88;;;3.50;99.90;;;;;;5035809;28;20220;-67
2023/12/04 12:57:35;;;;;;;17.67;12.35;;;3.50;99.90;;;;;;5036926;28;20220;-67
2023/12/04 13:00:05;;;;;;;16.25;11.35;;;3.50;99.90;;;;;;5036739;28;20198;-68
2023/12/04 13:02:36;;;;;;;20.02;11.57;;;3.60;99.90;;;;;;5035889;28;20213;-69
2023/12/04 13:05:04;;;;;;;14.25;10.23;;;3.60;99.90;;;;;;5028611;28;20226;-67
2023/12/04 13:07:31;;;;;;;14.07;10.65;;;3.50;99.90;;;;;;5035120;28;20208;-68
2023/12/04 13:09:58;;;;;;;14.88;10.82;;;3.30;99.90;;;;;;5034856;28;20205;-69
2023/12/04 13:12:25;;;;;;;15.68;10.45;;;3.30;99.90;;;;;;5033876;28;20284;-68
2023/12/04 13:14:52;;;;;;;15.35;9.82;;;3.20;99.90;;;;;;5026511;28;20326;-68
2023/12/04 13:17:20;;;;;;;17.63;11.00;;;3.20;99.90;;;;;;5023615;28;20256;-72
2023/12/04 13:19:47;;;;;;;17.83;11.45;;;3.10;99.90;;;;;;5027361;28;20647;-67
2023/12/04 13:22:14;;;;;;;15.10;10.30;;;3.20;99.90;;;;;;5031419;28;20285;-67
2023/12/04 13:24:41;;;;;;;21.10;11.35;;;3.10;99.90;;;;;;5030494;28;20232;-67
2023/12/04 13:27:09;;;;;;;18.80;11.55;;;3.10;99.90;;;;;;5035426;28;20216;-70
2023/12/04 13:29:36;;;;;;;17.60;11.20;;;3.10;99.90;;;;;;5029391;28;20577;-66
2023/12/04 13:32:04;;;;;;;14.23;10.25;;;3.10;99.90;;;;;;5031632;28;20201;-65
2023/12/04 13:34:33;;;;;;;17.65;11.02;;;3.10;99.90;;;;;;5026506;28;20882;-65
2023/12/04 13:37:00;;;;;;;18.30;11.20;;;3.10;99.90;;;;;;5031271;28;20228;-68
2023/12/04 13:39:47;;;;;;;14.40;10.63;;;3.10;99.90;;;;;;5034721;28;20204;-68
2023/12/04 13:44:58;;;;;;;17.75;11.20;;;3.10;99.90;;;;;;5030146;28;20231;-67
2023/12/04 13:47:25;;;;;;;13.50;9.93;;;3.10;99.90;;;;;;5029529;28;20204;-68
2023/12/04 13:49:55;;;;;;;14.52;9.85;;;3.10;99.90;;;;;;5034346;28;20240;-68
2023/12/04 13:52:23;;;;;;;13.80;9.85;;;3.10;99.90;;;;;;5032472;28;20196;-65
2023/12/04 13:54:51;;;;;;;18.20;10.60;;;3.20;99.90;;;;;;5031383;28;20551;-67
2023/12/04 13:57:22;;;;;;;17.02;12.18;;;3.10;99.90;;;;;;5034527;28;20204;-65
2023/12/04 13:59:49;;;;;;;14.93;11.00;;;3.00;99.90;;;;;;5024103;28;20687;-69
2023/12/04 14:02:17;;;;;;;13.65;9.63;;;3.00;99.90;;;;;;5033945;28;20220;-70
2023/12/04 14:04:44;;;;;;;15.85;11.02;;;3.00;99.90;;;;;;5025102;28;20227;-69
2023/12/04 14:07:13;;;;;;;14.50;10.95;;;3.10;99.90;;;;;;5034143;28;20630;-69
2023/12/04 14:09:40;;;;;;;17.38;10.93;;;3.00;99.90;;;;;;5026951;28;20720;-65
2023/12/04 14:12:08;;;;;;;14.80;9.70;;;3.00;99.90;;;;;;5030643;28;20192;-69
2023/12/04 14:14:37;;;;;;;14.93;10.98;;;3.10;99.90;;;;;;5032439;28;20467;-69
2023/12/04 14:17:05;;;;;;;15.35;11.65;;;3.10;99.90;;;;;;5034185;28;20212;-64